< < Back
Terminal Aerodrome Forecast


Current Version              Previous Versions:   1  2  3  4  5  6  7  8  9  

Terminal Aerodrome Forecast

527
FTUS42 KMLB 011727
TAFDAB
TAF
KDAB 011727Z 0118/0218 27007KT P6SM VCTS SCT040CB BKN120
      TEMPO 0118/0120 3SM TSRA BKN020CB OVC040
     FM012300 16004KT P6SM SCT030 OVC100
     FM020400 19003KT P6SM FEW050 BKN250=

Latest METAR

470
SAUS80 KWBC 012000 RRJ
MTRDAB
METAR KDAB 011953Z 35006KT 10SM TS FEW038CB SCT060 BKN150 27/22 A3003
RMK AO2 SLP169 FRQ LTGCG OHD NE-SE TS OHD NE-SE MOV E P0000
T02670222


USA.gov is the U.S. government's official web portal to all federal, state and local government web resources and services.